Time;durP1;ratioP1;P1;durP2;ratioP2;P2;SDS_P1;SDS_P2;PMS_P1;PMS_P2;Temp;Humidity;BMP_temperature;BMP_pressure;BME280_temperature;BME280_humidity;BME280_pressure;Samples;Min_cycle;Max_cycle;Signal;HPM_P1;HPM_P2
2021/03/27 00:01:26;;;;;;;25.90;14.45;;;;;;;;;;5059330;28;20020;-76
2021/03/27 00:03:58;;;;;;;25.80;15.63;;;;;;;;;;5053423;28;20094;-76
2021/03/27 00:06:33;;;;;;;30.52;18.88;;;;;;;;;;5053686;28;20074;-76
2021/03/27 00:09:03;;;;;;;23.35;13.98;;;;;;;;;;5052974;28;20088;-76
2021/03/27 00:11:44;;;;;;;24.63;12.98;;;;;;;;;;5053133;28;20028;-77
2021/03/27 00:14:13;;;;;;;28.17;15.70;;;;;;;;;;5052775;28;20174;-76
2021/03/27 00:16:45;;;;;;;32.05;16.10;;;;;;;;;;5052708;28;20059;-76
2021/03/27 00:19:15;;;;;;;28.55;16.65;;;;;;;;;;5053150;28;20473;-76
2021/03/27 00:21:46;;;;;;;35.80;16.77;;;;;;;;;;5053096;28;20028;-76
2021/03/27 00:24:21;;;;;;;34.65;18.58;;;;;;;;;;5052308;28;20028;-76
2021/03/27 00:26:56;;;;;;;34.85;18.33;;;;;;;;;;5053225;28;20660;-76
2021/03/27 00:29:26;;;;;;;28.65;14.88;;;;;;;;;;5052968;28;20111;-76
2021/03/27 00:31:56;;;;;;;28.77;14.52;;;;;;;;;;5052461;28;20021;-77
2021/03/27 00:34:26;;;;;;;21.98;11.80;;;;;;;;;;5052811;28;20039;-77
2021/03/27 00:36:55;;;;;;;22.75;11.57;;;;;;;;;;5052521;28;20044;-77
2021/03/27 00:39:24;;;;;;;20.25;10.05;;;;;;;;;;5052657;28;20070;-76
2021/03/27 00:42:10;;;;;;;25.77;10.00;;;;;;;;;;5051391;28;20021;-76
2021/03/27 00:44:39;;;;;;;19.25;10.57;;;;;;;;;;5051107;28;20048;-76
2021/03/27 00:47:07;;;;;;;17.27;10.10;;;;;;;;;;5051598;28;20359;-76
2021/03/27 00:49:41;;;;;;;17.17;8.63;;;;;;;;;;5052657;28;20025;-76
2021/03/27 00:52:08;;;;;;;16.27;8.90;;;;;;;;;;5050863;28;20389;-76
2021/03/27 00:54:40;;;;;;;16.88;8.80;;;;;;;;;;5052489;28;20470;-77
2021/03/27 00:57:25;;;;;;;18.17;10.45;;;;;;;;;;5052496;28;20033;-76
2021/03/27 01:00:04;;;;;;;20.15;11.18;;;;;;;;;;5052106;28;20025;-76
2021/03/27 01:02:31;;;;;;;20.65;10.65;;;;;;;;;;5051135;28;20029;-76
2021/03/27 01:04:58;;;;;;;19.08;10.27;;;;;;;;;;5052039;28;20029;-76
2021/03/27 01:07:25;;;;;;;17.70;8.90;;;;;;;;;;5052586;28;20143;-76
2021/03/27 01:09:54;;;;;;;17.33;10.27;;;;;;;;;;5051147;28;20025;-76
2021/03/27 01:12:34;;;;;;;20.52;10.13;;;;;;;;;;5051879;28;20032;-76
2021/03/27 01:15:23;;;;;;;19.80;10.55;;;;;;;;;;5052165;28;20136;-76
2021/03/27 01:17:51;;;;;;;20.13;10.52;;;;;;;;;;5049257;28;20099;-76
2021/03/27 01:20:29;;;;;;;23.95;12.10;;;;;;;;;;5051886;28;20082;-76
2021/03/27 01:22:55;;;;;;;24.55;13.02;;;;;;;;;;5052237;28;20035;-75
2021/03/27 01:25:23;;;;;;;28.35;13.95;;;;;;;;;;5052311;28;20108;-76
2021/03/27 01:27:54;;;;;;;24.17;12.52;;;;;;;;;;5052095;28;20378;-76
2021/03/27 01:30:23;;;;;;;17.67;10.43;;;;;;;;;;5050880;28;20469;-76
2021/03/27 01:32:52;;;;;;;18.65;10.75;;;;;;;;;;5052004;28;20045;-77
2021/03/27 01:35:33;;;;;;;19.98;11.05;;;;;;;;;;5053858;28;20131;-77
2021/03/27 01:38:13;;;;;;;16.10;9.43;;;;;;;;;;5056155;28;20029;-76
2021/03/27 01:40:51;;;;;;;16.60;8.57;;;;;;;;;;5055810;28;20432;-76
2021/03/27 01:43:17;;;;;;;14.15;7.68;;;;;;;;;;5055029;28;20056;-76
2021/03/27 01:46:02;;;;;;;20.92;10.27;;;;;;;;;;5054734;28;20021;-76
2021/03/27 01:48:35;;;;;;;16.70;9.45;;;;;;;;;;5056149;28;20060;-75
2021/03/27 01:51:01;;;;;;;;;;;;;;;;;;5054993;28;20111;-76
2021/03/27 01:53:33;;;;;;;19.05;8.70;;;;;;;;;;5055720;28;19999;-76
2021/03/27 01:56:18;;;;;;;20.17;9.80;;;;;;;;;;5055417;28;20017;-77
2021/03/27 01:58:52;;;;;;;23.27;12.70;;;;;;;;;;5054390;28;20029;-77
2021/03/27 02:01:21;;;;;;;22.90;12.68;;;;;;;;;;5055380;28;20603;-76
2021/03/27 02:04:05;;;;;;;27.92;14.25;;;;;;;;;;5055727;28;20043;-76
2021/03/27 02:06:31;;;;;;;;;;;;;;;;;;5056100;28;20207;-76
2021/03/27 02:09:06;;;;;;;20.58;10.18;;;;;;;;;;5055416;28;20005;-76
2021/03/27 02:11:51;;;;;;;17.20;8.25;;;;;;;;;;5054163;28;20017;-76
2021/03/27 02:14:24;;;;;;;19.85;11.10;;;;;;;;;;5055147;28;20081;-76
2021/03/27 02:16:52;;;;;;;14.60;7.47;;;;;;;;;;5055055;28;20078;-76
2021/03/27 02:19:25;;;;;;;16.63;8.82;;;;;;;;;;5053972;28;20039;-75
2021/03/27 02:22:10;;;;;;;14.35;7.78;;;;;;;;;;5055370;28;20045;-76
2021/03/27 02:24:48;;;;;;;13.52;8.02;;;;;;;;;;5055271;28;20024;-75
2021/03/27 02:27:18;;;;;;;16.10;9.02;;;;;;;;;;5055396;28;20047;-75
2021/03/27 02:29:58;;;;;;;15.45;8.27;;;;;;;;;;5055214;28;20021;-76
2021/03/27 02:32:30;;;;;;;15.02;7.70;;;;;;;;;;5055141;28;20381;-76
2021/03/27 02:35:04;;;;;;;14.45;7.38;;;;;;;;;;5053783;28;20033;-77
2021/03/27 02:37:39;;;;;;;16.50;9.00;;;;;;;;;;5054619;28;20021;-76
2021/03/27 02:40:15;;;;;;;13.90;8.18;;;;;;;;;;5054880;28;20028;-76
2021/03/27 02:42:56;;;;;;;15.75;8.30;;;;;;;;;;5053575;28;20066;-76
2021/03/27 02:45:22;;;;;;;16.95;10.07;;;;;;;;;;5054040;28;20025;-75
2021/03/27 02:48:04;;;;;;;19.00;9.45;;;;;;;;;;5054987;28;20144;-76
2021/03/27 02:50:45;;;;;;;17.80;9.13;;;;;;;;;;5053231;28;20072;-76
2021/03/27 02:53:20;;;;;;;15.93;8.95;;;;;;;;;;5054718;28;20044;-76
2021/03/27 02:55:49;;;;;;;15.25;7.63;;;;;;;;;;5054938;28;20021;-77
2021/03/27 02:58:39;;;;;;;15.23;8.20;;;;;;;;;;5054380;28;20040;-76
2021/03/27 03:01:08;;;;;;;16.58;9.07;;;;;;;;;;5054607;28;20025;-76
2021/03/27 03:04:07;;;;;;;17.90;8.90;;;;;;;;;;5054540;28;20043;-77
2021/03/27 03:06:37;;;;;;;13.60;6.90;;;;;;;;;;5041721;28;20040;-76
2021/03/27 03:09:20;;;;;;;18.63;8.07;;;;;;;;;;5054696;28;20107;-76
2021/03/27 03:12:04;;;;;;;16.10;8.30;;;;;;;;;;5054083;28;20025;-76
2021/03/27 03:14:43;;;;;;;15.60;6.85;;;;;;;;;;5054088;28;20053;-75
2021/03/27 03:17:29;;;;;;;15.52;7.88;;;;;;;;;;5054405;28;20025;-76
2021/03/27 03:20:14;;;;;;;20.73;9.60;;;;;;;;;;5053969;28;20036;-76
2021/03/27 03:22:52;;;;;;;17.65;8.52;;;;;;;;;;5054144;28;20013;-76
2021/03/27 03:25:20;;;;;;;19.75;10.07;;;;;;;;;;5053181;28;20412;-76
2021/03/27 03:27:55;;;;;;;18.13;10.15;;;;;;;;;;5052604;28;20096;-75
2021/03/27 03:30:25;;;;;;;16.60;9.63;;;;;;;;;;5054209;28;20114;-75
2021/03/27 03:33:07;;;;;;;15.60;8.68;;;;;;;;;;5053456;28;20028;-76
2021/03/27 03:35:47;;;;;;;20.88;10.65;;;;;;;;;;5054244;28;20028;-77
2021/03/27 03:38:27;;;;;;;18.85;8.82;;;;;;;;;;5053852;28;20049;-76
2021/03/27 03:41:12;;;;;;;24.33;9.25;;;;;;;;;;5053495;28;20029;-76
2021/03/27 03:43:55;;;;;;;17.83;8.27;;;;;;;;;;5053819;28;20035;-76
2021/03/27 03:46:26;;;;;;;22.83;11.02;;;;;;;;;;5053805;28;20025;-75
2021/03/27 03:49:10;;;;;;;18.67;10.68;;;;;;;;;;5053838;28;20436;-77
2021/03/27 03:51:59;;;;;;;17.55;9.38;;;;;;;;;;5053808;28;20382;-76
2021/03/27 03:54:35;;;;;;;15.65;7.63;;;;;;;;;;5050225;28;20444;-76
2021/03/27 03:57:16;;;;;;;14.90;7.82;;;;;;;;;;5052866;28;20060;-76
2021/03/27 03:59:48;;;;;;;15.90;9.13;;;;;;;;;;5053541;28;20024;-76
2021/03/27 04:02:27;;;;;;;16.85;9.98;;;;;;;;;;5052984;28;20021;-75
2021/03/27 04:05:07;;;;;;;17.42;10.02;;;;;;;;;;5053273;28;20025;-75
2021/03/27 04:07:38;;;;;;;17.55;8.57;;;;;;;;;;5052358;28;20107;-76
2021/03/27 04:10:13;;;;;;;16.42;8.75;;;;;;;;;;5053489;28;20071;-76
2021/03/27 04:12:46;;;;;;;17.75;8.65;;;;;;;;;;5053047;28;20032;-74
2021/03/27 04:15:17;;;;;;;13.77;7.83;;;;;;;;;;5052918;28;20036;-76
2021/03/27 04:17:53;;;;;;;17.13;9.23;;;;;;;;;;5053160;28;20437;-76
2021/03/27 04:20:25;;;;;;;14.35;7.75;;;;;;;;;;5051792;28;20166;-76
2021/03/27 04:22:57;;;;;;;18.80;8.82;;;;;;;;;;5052887;28;20029;-76
2021/03/27 04:25:25;;;;;;;16.00;8.90;;;;;;;;;;5053161;28;20052;-75
2021/03/27 04:27:54;;;;;;;22.05;11.13;;;;;;;;;;5053127;28;20253;-76
2021/03/27 04:30:20;;;;;;;16.00;10.38;;;;;;;;;;5051298;28;20058;-76
2021/03/27 04:33:13;;;;;;;16.85;9.10;;;;;;;;;;5052839;28;20028;-76
2021/03/27 04:36:00;;;;;;;15.85;8.48;;;;;;;;;;5051677;28;20064;-76
2021/03/27 04:38:32;;;;;;;14.65;8.15;;;;;;;;;;5052795;28;20032;-76
2021/03/27 04:41:05;;;;;;;15.52;8.20;;;;;;;;;;5053123;28;20427;-76
2021/03/27 04:43:37;;;;;;;11.68;6.82;;;;;;;;;;5052412;28;20032;-76
2021/03/27 04:46:20;;;;;;;16.20;9.32;;;;;;;;;;5052829;28;20021;-76
2021/03/27 04:48:58;;;;;;;17.88;10.80;;;;;;;;;;5052775;28;20028;-75
2021/03/27 04:51:40;;;;;;;21.80;10.40;;;;;;;;;;5052125;28;20100;-76
2021/03/27 04:54:25;;;;;;;15.23;8.20;;;;;;;;;;5052484;28;20025;-76
2021/03/27 04:57:00;;;;;;;18.65;8.75;;;;;;;;;;5052101;28;20100;-76
2021/03/27 04:59:32;;;;;;;14.52;8.10;;;;;;;;;;5052471;28;20104;-76
2021/03/27 05:02:08;;;;;;;14.77;9.10;;;;;;;;;;5052473;28;20021;-76
2021/03/27 05:04:53;;;;;;;20.23;10.75;;;;;;;;;;5051454;28;20076;-80
2021/03/27 05:07:21;;;;;;;22.42;12.98;;;;;;;;;;5052823;28;20385;-78
2021/03/27 05:09:49;;;;;;;18.65;10.98;;;;;;;;;;5052427;28;20025;-78
2021/03/27 05:12:27;;;;;;;26.13;12.77;;;;;;;;;;5052030;28;20028;-74
2021/03/27 05:15:08;;;;;;;22.17;11.35;;;;;;;;;;5052137;28;20045;-76
2021/03/27 05:17:43;;;;;;;24.38;11.90;;;;;;;;;;5053427;28;20367;-76
2021/03/27 05:20:22;;;;;;;26.42;13.73;;;;;;;;;;5053485;28;20021;-77
2021/03/27 05:22:52;;;;;;;28.48;14.35;;;;;;;;;;5052232;28;20025;-77
2021/03/27 05:25:22;;;;;;;24.52;13.27;;;;;;;;;;5052465;28;20449;-78
2021/03/27 05:27:54;;;;;;;23.42;11.95;;;;;;;;;;5052524;28;20059;-76
2021/03/27 05:30:23;;;;;;;16.38;10.20;;;;;;;;;;5052102;28;20474;-76
2021/03/27 05:33:18;;;;;;;26.05;13.68;;;;;;;;;;5050841;28;20033;-78
2021/03/27 05:36:03;;;;;;;24.65;13.85;;;;;;;;;;5052199;28;20561;-77
2021/03/27 05:38:45;;;;;;;23.08;12.98;;;;;;;;;;5052129;28;20021;-78
2021/03/27 05:41:32;;;;;;;23.80;12.13;;;;;;;;;;5051757;28;20024;-78
2021/03/27 05:44:01;;;;;;;33.40;15.85;;;;;;;;;;5051921;28;20048;-77
2021/03/27 05:46:46;;;;;;;30.27;14.15;;;;;;;;;;5051919;28;20469;-77
2021/03/27 05:49:21;;;;;;;27.23;13.93;;;;;;;;;;5052105;28;20025;-77
2021/03/27 05:51:59;;;;;;;27.27;14.57;;;;;;;;;;5051935;28;20022;-77
2021/03/27 05:54:46;;;;;;;20.65;11.32;;;;;;;;;;5051558;28;20037;-77
2021/03/27 05:57:27;;;;;;;24.85;14.55;;;;;;;;;;5052002;28;20389;-77
2021/03/27 06:00:09;;;;;;;19.80;12.30;;;;;;;;;;5051872;28;20385;-78
2021/03/27 06:02:58;;;;;;;32.67;16.88;;;;;;;;;;5052251;28;20378;-77
2021/03/27 06:05:29;;;;;;;26.92;14.98;;;;;;;;;;5052072;28;20466;-77
2021/03/27 06:08:14;;;;;;;24.75;13.82;;;;;;;;;;5054668;28;20500;-77
2021/03/27 06:10:43;;;;;;;20.63;11.32;;;;;;;;;;5056250;28;20025;-77
2021/03/27 06:13:28;;;;;;;22.98;12.98;;;;;;;;;;5052950;28;20041;-77
2021/03/27 06:16:03;;;;;;;19.88;11.73;;;;;;;;;;5051512;28;20028;-77
2021/03/27 06:18:48;;;;;;;19.77;12.50;;;;;;;;;;5051814;28;20427;-76
2021/03/27 06:21:26;;;;;;;25.95;14.07;;;;;;;;;;5052953;28;20059;-77
2021/03/27 06:23:58;;;;;;;22.08;12.02;;;;;;;;;;5055439;28;20052;-77
2021/03/27 06:26:42;;;;;;;22.20;12.30;;;;;;;;;;5055666;28;20489;-77
2021/03/27 06:29:27;;;;;;;17.95;10.50;;;;;;;;;;5053837;28;20017;-77
2021/03/27 06:32:06;;;;;;;16.02;10.13;;;;;;;;;;5055347;28;20410;-77
2021/03/27 06:34:59;;;;;;;20.25;11.85;;;;;;;;;;5055184;28;20033;-78
2021/03/27 06:37:25;;;;;;;17.30;9.63;;;;;;;;;;5054799;28;20102;-77
2021/03/27 06:39:52;;;;;;;15.38;9.85;;;;;;;;;;5055062;28;20025;-77
2021/03/27 06:42:36;;;;;;;25.70;12.15;;;;;;;;;;5053677;28;20025;-77
2021/03/27 06:45:06;;;;;;;17.33;10.18;;;;;;;;;;5053694;28;20158;-77
2021/03/27 06:47:51;;;;;;;21.63;13.73;;;;;;;;;;5053827;28;20025;-76
2021/03/27 06:50:37;;;;;;;22.63;14.07;;;;;;;;;;5054692;28;20033;-76
2021/03/27 06:53:14;;;;;;;27.17;15.63;;;;;;;;;;5054720;28;20025;-77
2021/03/27 06:55:46;;;;;;;24.58;13.07;;;;;;;;;;5054694;28;20021;-77
2021/03/27 06:58:31;;;;;;;24.65;12.93;;;;;;;;;;5054398;28;20481;-76
2021/03/27 07:01:06;;;;;;;27.38;14.80;;;;;;;;;;5054790;28;20477;-78
2021/03/27 07:03:50;;;;;;;36.45;17.42;;;;;;;;;;5054275;28;20017;-76
2021/03/27 07:06:35;;;;;;;18.02;9.68;;;;;;;;;;5054501;28;20021;-76
2021/03/27 07:09:14;;;;;;;24.60;12.48;;;;;;;;;;5054648;28;20024;-76
2021/03/27 07:11:58;;;;;;;25.13;13.63;;;;;;;;;;5054400;28;20101;-77
2021/03/27 07:14:28;;;;;;;20.95;11.40;;;;;;;;;;5054121;28;20059;-76
2021/03/27 07:17:00;;;;;;;45.50;30.98;;;;;;;;;;5054321;28;20040;-78
2021/03/27 07:19:45;;;;;;;23.40;13.60;;;;;;;;;;5052568;28;20103;-76
2021/03/27 07:22:28;;;;;;;16.17;11.43;;;;;;;;;;5052935;28;20051;-77
2021/03/27 07:24:54;;;;;;;;;;;;;;;;;;5054371;28;20033;-76
2021/03/27 07:27:20;;;;;;;28.10;16.42;;;;;;;;;;5054389;28;19905;-76
2021/03/27 07:29:57;;;;;;;29.67;15.77;;;;;;;;;;5054233;28;20052;-78
2021/03/27 07:32:32;;;;;;;22.20;12.27;;;;;;;;;;5053831;28;20031;-77
2021/03/27 07:34:59;;;;;;;17.67;9.55;;;;;;;;;;5054058;28;20033;-77
2021/03/27 07:37:28;;;;;;;17.83;11.05;;;;;;;;;;5053960;28;20031;-76
2021/03/27 07:40:13;;;;;;;19.60;12.60;;;;;;;;;;5053501;28;20501;-76
2021/03/27 07:42:43;;;;;;;20.40;10.02;;;;;;;;;;5053905;28;20024;-76
2021/03/27 07:45:20;;;;;;;19.80;11.65;;;;;;;;;;5053991;28;20017;-75
2021/03/27 07:48:05;;;;;;;24.40;11.80;;;;;;;;;;5053772;28;20036;-76
2021/03/27 07:50:40;;;;;;;18.73;9.73;;;;;;;;;;5053777;28;20033;-76
2021/03/27 07:53:06;;;;;;;15.30;8.38;;;;;;;;;;5051958;28;20504;-76
2021/03/27 07:56:07;;;;;;;25.98;13.77;;;;;;;;;;5053740;28;20486;-77
2021/03/27 07:58:36;;;;;;;16.15;10.10;;;;;;;;;;5052263;28;20028;-76
2021/03/27 08:01:18;;;;;;;20.08;10.75;;;;;;;;;;5053187;28;20458;-76
2021/03/27 08:04:03;;;;;;;22.27;12.18;;;;;;;;;;5053564;28;20027;-76
2021/03/27 08:06:32;;;;;;;15.80;9.73;;;;;;;;;;5053437;28;20028;-76
2021/03/27 08:09:04;;;;;;;17.10;9.93;;;;;;;;;;5053193;28;20486;-76
2021/03/27 08:11:33;;;;;;;17.35;11.13;;;;;;;;;;5053264;28;20051;-75
2021/03/27 08:14:12;;;;;;;13.50;8.45;;;;;;;;;;5052592;28;20114;-76
2021/03/27 08:16:45;;;;;;;14.00;8.82;;;;;;;;;;5053391;28;20103;-76
2021/03/27 08:19:13;;;;;;;16.25;9.07;;;;;;;;;;5053186;28;20029;-76
2021/03/27 08:21:58;;;;;;;19.17;8.20;;;;;;;;;;5051488;28;20485;-75
2021/03/27 08:24:43;;;;;;;16.02;7.60;;;;;;;;;;5051813;28;20025;-76
2021/03/27 08:27:27;;;;;;;13.98;7.70;;;;;;;;;;5053148;28;20033;-76
2021/03/27 08:29:59;;;;;;;15.02;8.23;;;;;;;;;;5052549;28;20044;-77
2021/03/27 08:32:35;;;;;;;13.93;7.93;;;;;;;;;;5051626;28;20027;-76
2021/03/27 08:35:10;;;;;;;13.50;8.05;;;;;;;;;;5052388;28;20029;-77
2021/03/27 08:37:39;;;;;;;29.77;16.83;;;;;;;;;;5052744;28;20059;-76
2021/03/27 08:40:18;;;;;;;17.10;8.15;;;;;;;;;;5052789;28;20101;-76
2021/03/27 08:43:03;;;;;;;21.40;12.55;;;;;;;;;;5052227;28;20107;-76
2021/03/27 08:45:37;;;;;;;16.23;11.50;;;;;;;;;;5052489;28;20032;-75
2021/03/27 08:48:09;;;;;;;15.52;7.75;;;;;;;;;;5052859;28;20021;-76
2021/03/27 08:50:38;;;;;;;15.10;8.23;;;;;;;;;;5052364;28;20438;-76
2021/03/27 08:53:27;;;;;;;13.27;8.00;;;;;;;;;;5052454;28;20067;-76
2021/03/27 08:56:12;;;;;;;10.43;5.88;;;;;;;;;;5052479;28;20029;-76
2021/03/27 08:58:57;;;;;;;13.98;8.50;;;;;;;;;;5051129;28;20119;-76
2021/03/27 09:01:26;;;;;;;15.52;8.93;;;;;;;;;;5052416;28;20025;-76
2021/03/27 09:04:01;;;;;;;13.55;7.65;;;;;;;;;;5051996;28;20053;-76
2021/03/27 09:06:52;;;;;;;10.63;5.60;;;;;;;;;;5052516;28;20521;-76
2021/03/27 09:10:32;;;;;;;18.60;10.32;;;;;;;;;;5069604;28;20899;-76
2021/03/27 09:15:36;;;;;;;14.57;7.93;;;;;;;;;;5130725;27;20313;-75
2021/03/27 09:18:21;;;;;;;20.20;11.43;;;;;;;;;;5109789;28;20039;-75
2021/03/27 09:21:13;;;;;;;16.17;10.75;;;;;;;;;;5109996;28;20026;-75
2021/03/27 09:23:39;;;;;;;17.33;9.55;;;;;;;;;;5091807;28;20379;-77
2021/03/27 09:26:15;;;;;;;17.23;9.35;;;;;;;;;;5110265;27;20454;-77
2021/03/27 09:28:51;;;;;;;17.70;9.00;;;;;;;;;;5110662;28;20101;-75
2021/03/27 09:33:41;;;;;;;9.43;5.35;;;;;;;;;;5110527;27;20320;-77
2021/03/27 09:36:13;;;;;;;9.77;5.03;;;;;;;;;;5110658;28;20043;-76
2021/03/27 09:38:45;;;;;;;9.57;4.50;;;;;;;;;;5110028;28;20036;-76
2021/03/27 09:42:23;;;;;;;20.67;9.70;;;;;;;;;;5110891;27;20434;-76
2021/03/27 09:44:49;;;;;;;13.40;7.45;;;;;;;;;;5110417;28;20638;-75
2021/03/27 09:47:22;;;;;;;13.80;6.88;;;;;;;;;;5109947;28;20032;-77
2021/03/27 09:49:52;;;;;;;9.70;5.45;;;;;;;;;;5110354;28;20027;-76
2021/03/27 09:52:21;;;;;;;12.35;5.43;;;;;;;;;;5109699;28;20095;-77
2021/03/27 09:55:46;;;;;;;9.40;4.85;;;;;;;;;;5070179;28;20480;-77
2021/03/27 09:58:17;;;;;;;11.80;5.40;;;;;;;;;;5069800;28;20032;-77
2021/03/27 10:00:50;;;;;;;9.20;5.18;;;;;;;;;;5069394;28;20028;-77
2021/03/27 10:03:19;;;;;;;19.42;7.80;;;;;;;;;;5068218;28;20103;-77
2021/03/27 10:05:48;;;;;;;13.88;7.68;;;;;;;;;;5069626;28;20033;-77
2021/03/27 10:08:33;;;;;;;12.73;6.20;;;;;;;;;;5069349;28;20424;-78
2021/03/27 10:11:04;;;;;;;11.98;5.70;;;;;;;;;;5070022;28;20043;-76
2021/03/27 10:13:57;;;;;;;12.18;6.88;;;;;;;;;;5067705;28;20017;-75
2021/03/27 10:16:31;;;;;;;11.23;6.35;;;;;;;;;;5061034;28;20056;-75
2021/03/27 10:21:08;;;;;;;10.57;5.20;;;;;;;;;;5070013;28;20387;-78
2021/03/27 10:23:40;;;;;;;8.88;5.13;;;;;;;;;;5070031;28;20117;-76
2021/03/27 10:26:09;;;;;;;9.65;5.47;;;;;;;;;;5069581;28;20029;-76
2021/03/27 10:28:39;;;;;;;9.73;4.72;;;;;;;;;;5069422;28;20142;-77
2021/03/27 10:31:09;;;;;;;10.82;5.32;;;;;;;;;;5069629;28;20027;-76
2021/03/27 10:33:50;;;;;;;9.55;5.22;;;;;;;;;;5069532;28;20013;-77
2021/03/27 10:36:19;;;;;;;8.40;4.60;;;;;;;;;;5069019;28;20380;-77
2021/03/27 10:39:01;;;;;;;9.27;4.57;;;;;;;;;;5069578;28;20025;-77
2021/03/27 10:41:44;;;;;;;11.13;4.70;;;;;;;;;;5068948;28;20025;-76
2021/03/27 10:44:46;;;;;;;12.15;5.28;;;;;;;;;;5069502;28;20029;-76
2021/03/27 10:47:21;;;;;;;9.52;4.00;;;;;;;;;;5047074;28;20168;-79
2021/03/27 10:49:50;;;;;;;8.73;4.82;;;;;;;;;;5062308;28;20131;-77
2021/03/27 10:52:41;;;;;;;8.02;4.03;;;;;;;;;;5172778;27;20309;-77
2021/03/27 10:55:20;;;;;;;11.30;4.97;;;;;;;;;;5133429;27;20034;-77
2021/03/27 10:58:05;;;;;;;8.35;4.60;;;;;;;;;;5151417;27;20023;-76
2021/03/27 11:00:34;;;;;;;8.20;4.70;;;;;;;;;;5151205;27;20097;-75
2021/03/27 11:03:00;;;;;;;9.10;4.72;;;;;;;;;;5132294;27;20143;-76
2021/03/27 11:05:30;;;;;;;8.05;4.38;;;;;;;;;;5151708;27;20023;-76
2021/03/27 11:08:02;;;;;;;8.13;4.35;;;;;;;;;;5151304;27;20099;-76
2021/03/27 11:12:35;;;;;;;9.10;4.65;;;;;;;;;;5070835;28;20379;-77
2021/03/27 11:15:07;;;;;;;7.65;3.92;;;;;;;;;;5070601;28;20037;-77
2021/03/27 11:17:39;;;;;;;7.80;4.33;;;;;;;;;;5069481;28;20021;-77
2021/03/27 11:20:27;;;;;;;7.93;4.15;;;;;;;;;;5069858;28;20260;-77
2021/03/27 11:23:02;;;;;;;8.55;4.78;;;;;;;;;;5069753;28;20021;-77
2021/03/27 11:25:34;;;;;;;8.65;4.55;;;;;;;;;;5069380;28;20098;-77
2021/03/27 11:28:19;;;;;;;12.25;5.47;;;;;;;;;;5068506;28;20025;-77
2021/03/27 11:31:03;;;;;;;10.82;5.70;;;;;;;;;;5069301;28;20558;-77
2021/03/27 11:33:31;;;;;;;7.07;4.05;;;;;;;;;;5069504;28;20048;-76
2021/03/27 11:36:16;;;;;;;10.05;5.45;;;;;;;;;;5069241;28;20059;-77
2021/03/27 11:39:01;;;;;;;17.00;9.02;;;;;;;;;;5068966;28;20440;-78
2021/03/27 11:41:42;;;;;;;11.00;6.18;;;;;;;;;;5069849;28;20048;-77
2021/03/27 11:44:21;;;;;;;9.73;4.07;;;;;;;;;;5069703;28;20032;-76
2021/03/27 11:47:06;;;;;;;13.85;7.15;;;;;;;;;;5069133;28;20020;-76
2021/03/27 11:49:47;;;;;;;9.25;4.30;;;;;;;;;;5069096;28;20023;-76
2021/03/27 11:52:23;;;;;;;7.93;3.97;;;;;;;;;;5069175;28;20033;-76
2021/03/27 11:55:33;;;;;;;10.27;5.10;;;;;;;;;;5058506;28;20757;-76
2021/03/27 11:58:18;;;;;;;9.02;4.00;;;;;;;;;;5047938;28;20398;-77
2021/03/27 12:01:03;;;;;;;6.28;3.40;;;;;;;;;;5047610;28;20104;-75
2021/03/27 12:03:32;;;;;;;6.93;2.78;;;;;;;;;;5048518;28;20018;-75
2021/03/27 12:06:05;;;;;;;7.53;3.83;;;;;;;;;;5047673;28;20056;-76
2021/03/27 12:08:51;;;;;;;7.30;3.88;;;;;;;;;;5047821;28;20442;-76
2021/03/27 12:11:20;;;;;;;7.18;3.88;;;;;;;;;;5047857;28;20017;-75
2021/03/27 12:16:02;;;;;;;6.50;3.67;;;;;;;;;;5069709;28;20438;-75
2021/03/27 12:18:47;;;;;;;9.35;4.65;;;;;;;;;;5069678;28;20056;-75
2021/03/27 12:21:18;;;;;;;10.02;3.95;;;;;;;;;;5069125;28;20025;-75
2021/03/27 12:23:44;;;;;;;8.35;3.47;;;;;;;;;;5069550;28;20029;-75
2021/03/27 12:26:19;;;;;;;7.05;3.83;;;;;;;;;;5068206;28;20025;-75
2021/03/27 12:29:01;;;;;;;7.32;3.35;;;;;;;;;;5069117;28;20162;-76
2021/03/27 12:31:33;;;;;;;10.27;5.10;;;;;;;;;;5069389;28;20272;-76
2021/03/27 12:33:59;;;;;;;9.25;4.63;;;;;;;;;;5068949;28;20031;-76
2021/03/27 12:36:30;;;;;;;8.23;3.63;;;;;;;;;;5068021;28;20087;-76
2021/03/27 12:38:56;;;;;;;9.48;5.72;;;;;;;;;;5069249;28;20465;-77
2021/03/27 12:41:28;;;;;;;8.32;4.15;;;;;;;;;;5068771;28;20041;-76
2021/03/27 12:43:57;;;;;;;34.08;19.02;;;;;;;;;;5068977;28;20432;-76
2021/03/27 12:46:41;;;;;;;22.17;11.00;;;;;;;;;;5069293;28;20028;-77
2021/03/27 12:49:26;;;;;;;69.60;32.95;;;;;;;;;;5068658;28;20419;-75
2021/03/27 12:52:07;;;;;;;53.53;24.27;;;;;;;;;;5068912;28;20028;-76
2021/03/27 12:54:40;;;;;;;176.65;80.93;;;;;;;;;;5068846;28;20041;-77
2021/03/27 12:57:25;;;;;;;32.75;16.13;;;;;;;;;;5068393;28;20098;-76
2021/03/27 12:59:54;;;;;;;30.17;15.00;;;;;;;;;;5068923;28;20433;-77
2021/03/27 13:02:28;;;;;;;49.45;26.00;;;;;;;;;;5068472;28;20035;-77
2021/03/27 13:05:03;;;;;;;11.07;5.75;;;;;;;;;;5067576;28;20052;-77
2021/03/27 13:07:48;;;;;;;7.65;4.30;;;;;;;;;;5069004;28;20021;-76
2021/03/27 13:10:33;;;;;;;7.57;4.30;;;;;;;;;;5068117;28;20033;-76
2021/03/27 13:13:06;;;;;;;7.78;4.15;;;;;;;;;;5068464;28;20035;-76
2021/03/27 13:15:45;;;;;;;9.05;5.13;;;;;;;;;;5068119;28;20070;-76
2021/03/27 13:18:30;;;;;;;7.47;4.22;;;;;;;;;;5068082;28;20170;-76
2021/03/27 13:21:08;;;;;;;7.35;3.60;;;;;;;;;;5066901;28;20021;-76
2021/03/27 13:23:58;;;;;;;9.32;4.07;;;;;;;;;;5067998;28;20028;-76
2021/03/27 13:26:26;;;;;;;14.77;8.40;;;;;;;;;;5056165;28;20064;-76
2021/03/27 13:28:54;;;;;;;14.38;8.68;;;;;;;;;;5055114;28;20481;-76
2021/03/27 13:31:23;;;;;;;7.78;4.43;;;;;;;;;;5054680;28;20029;-77
2021/03/27 13:34:05;;;;;;;6.32;3.63;;;;;;;;;;5054807;28;20036;-77
2021/03/27 13:36:37;;;;;;;6.75;3.53;;;;;;;;;;5053534;28;20561;-78
2021/03/27 13:39:12;;;;;;;4.93;2.90;;;;;;;;;;5053172;28;20028;-77
2021/03/27 13:41:38;;;;;;;8.05;4.03;;;;;;;;;;5053436;28;20067;-77
2021/03/27 13:44:24;;;;;;;9.27;5.25;;;;;;;;;;5054716;28;20052;-76
2021/03/27 13:47:08;;;;;;;8.27;4.93;;;;;;;;;;5053571;28;20028;-76
2021/03/27 13:49:41;;;;;;;6.70;3.13;;;;;;;;;;5054739;28;20093;-77
2021/03/27 13:52:22;;;;;;;21.80;4.28;;;;;;;;;;5054238;28;20587;-77
2021/03/27 13:54:51;;;;;;;5.72;3.50;;;;;;;;;;5053157;28;20492;-77
2021/03/27 13:57:21;;;;;;;7.25;3.75;;;;;;;;;;5053153;28;20032;-77
2021/03/27 14:00:05;;;;;;;6.25;3.25;;;;;;;;;;5054259;28;20032;-77
2021/03/27 14:02:38;;;;;;;8.00;3.30;;;;;;;;;;5054843;28;20055;-76
2021/03/27 14:05:07;;;;;;;6.53;3.58;;;;;;;;;;5054356;28;20141;-76
2021/03/27 14:07:33;;;;;;;11.00;4.18;;;;;;;;;;5053935;28;20539;-76
2021/03/27 14:09:59;;;;;;;6.45;3.47;;;;;;;;;;5054484;28;20478;-76
2021/03/27 14:12:32;;;;;;;7.00;3.50;;;;;;;;;;5054919;28;20025;-78
2021/03/27 14:15:01;;;;;;;6.32;3.00;;;;;;;;;;5054753;28;20099;-79
2021/03/27 14:17:31;;;;;;;4.88;3.10;;;;;;;;;;5053095;28;20025;-76
2021/03/27 14:20:09;;;;;;;7.15;3.80;;;;;;;;;;5053455;28;20079;-77
2021/03/27 14:22:38;;;;;;;12.10;6.05;;;;;;;;;;5054077;28;20055;-76
2021/03/27 14:25:16;;;;;;;7.60;3.50;;;;;;;;;;5053846;28;20520;-76
2021/03/27 14:27:50;;;;;;;7.25;4.05;;;;;;;;;;5053467;28;20029;-76
2021/03/27 14:30:39;;;;;;;12.30;8.05;;;;;;;;;;5052516;28;20450;-77
2021/03/27 14:33:05;;;;;;;11.05;5.63;;;;;;;;;;5053733;28;20474;-77
2021/03/27 14:35:47;;;;;;;17.80;10.57;;;;;;;;;;5053243;28;20393;-78
2021/03/27 14:38:21;;;;;;;7.50;3.72;;;;;;;;;;5052736;28;20028;-77
2021/03/27 14:40:55;;;;;;;6.05;3.35;;;;;;;;;;5053312;28;20031;-77
2021/03/27 14:43:24;;;;;;;14.02;7.85;;;;;;;;;;5053833;28;20028;-76
2021/03/27 14:46:09;;;;;;;13.10;7.70;;;;;;;;;;5053791;28;20432;-76
2021/03/27 14:48:36;;;;;;;9.40;5.22;;;;;;;;;;5053395;28;20053;-77
2021/03/27 14:51:05;;;;;;;7.97;4.88;;;;;;;;;;5053525;28;20021;-77
2021/03/27 14:53:36;;;;;;;11.40;7.45;;;;;;;;;;5053432;28;20584;-77
2021/03/27 14:56:12;;;;;;;11.82;6.28;;;;;;;;;;5053045;28;20025;-77
2021/03/27 14:58:42;;;;;;;6.68;3.83;;;;;;;;;;5053394;28;20025;-77
2021/03/27 15:01:23;;;;;;;7.82;4.47;;;;;;;;;;5053300;28;20378;-77
2021/03/27 15:03:53;;;;;;;11.88;5.03;;;;;;;;;;5052935;28;20021;-77
2021/03/27 15:06:45;;;;;;;9.70;5.40;;;;;;;;;;5053263;28;20489;-77
2021/03/27 15:09:29;;;;;;;8.50;4.90;;;;;;;;;;5052026;28;20115;-77
2021/03/27 15:12:01;;;;;;;9.77;5.85;;;;;;;;;;5054059;28;20024;-77
2021/03/27 15:14:27;;;;;;;;;;;;;;;;;;5054313;28;20060;-77
2021/03/27 15:17:02;;;;;;;8.82;4.93;;;;;;;;;;5052808;28;19905;-77
2021/03/27 15:19:44;;;;;;;7.80;4.47;;;;;;;;;;5053037;28;20481;-77
2021/03/27 15:22:20;;;;;;;10.23;5.28;;;;;;;;;;5052937;28;20106;-77
2021/03/27 15:27:57;;;;;;;11.55;5.00;;;;;;;;;;5054473;28;20063;-78
2021/03/27 15:30:40;;;;;;;12.90;4.75;;;;;;;;;;5053601;28;20021;-78
2021/03/27 15:33:06;;;;;;;9.30;4.18;;;;;;;;;;5053097;28;20025;-78
2021/03/27 15:35:38;;;;;;;13.25;8.00;;;;;;;;;;5053302;28;20040;-78
2021/03/27 15:38:23;;;;;;;13.02;7.85;;;;;;;;;;5052999;28;20017;-78